sensor_id;sensor_type;location;lat;lon;timestamp;P1;durP1;ratioP1;P2;durP2;ratioP2
74363;SDS011;62797;49.740;10.154;2024-03-06T00:01:26;34.33;;;17.02;;
74363;SDS011;62797;49.740;10.154;2024-03-06T00:04:04;33.45;;;16.00;;
74363;SDS011;62797;49.740;10.154;2024-03-06T00:06:38;35.35;;;17.38;;
74363;SDS011;62797;49.740;10.154;2024-03-06T00:09:11;31.02;;;15.90;;
74363;SDS011;62797;49.740;10.154;2024-03-06T00:11:44;35.05;;;16.27;;
74363;SDS011;62797;49.740;10.154;2024-03-06T00:14:16;36.70;;;16.10;;
74363;SDS011;62797;49.740;10.154;2024-03-06T00:16:48;31.98;;;15.65;;
74363;SDS011;62797;49.740;10.154;2024-03-06T00:19:24;31.48;;;15.63;;
74363;SDS011;62797;49.740;10.154;2024-03-06T00:21:56;35.47;;;18.05;;
74363;SDS011;62797;49.740;10.154;2024-03-06T00:24:28;32.97;;;17.58;;
74363;SDS011;62797;49.740;10.154;2024-03-06T00:27:02;35.17;;;17.52;;
74363;SDS011;62797;49.740;10.154;2024-03-06T00:29:43;32.78;;;18.13;;
74363;SDS011;62797;49.740;10.154;2024-03-06T00:32:15;41.08;;;17.88;;
74363;SDS011;62797;49.740;10.154;2024-03-06T00:37:39;34.65;;;18.83;;
74363;SDS011;62797;49.740;10.154;2024-03-06T00:40:11;35.95;;;16.23;;
74363;SDS011;62797;49.740;10.154;2024-03-06T00:42:44;38.95;;;18.27;;
74363;SDS011;62797;49.740;10.154;2024-03-06T00:45:17;36.95;;;16.55;;
74363;SDS011;62797;49.740;10.154;2024-03-06T00:47:49;37.47;;;18.92;;
74363;SDS011;62797;49.740;10.154;2024-03-06T00:50:21;40.10;;;19.00;;
74363;SDS011;62797;49.740;10.154;2024-03-06T00:52:54;38.03;;;17.52;;
74363;SDS011;62797;49.740;10.154;2024-03-06T00:55:26;29.48;;;14.70;;
74363;SDS011;62797;49.740;10.154;2024-03-06T00:57:58;35.50;;;16.65;;
74363;SDS011;62797;49.740;10.154;2024-03-06T01:00:30;27.55;;;13.93;;
74363;SDS011;62797;49.740;10.154;2024-03-06T01:03:02;32.95;;;17.23;;
74363;SDS011;62797;49.740;10.154;2024-03-06T01:05:35;31.00;;;17.27;;
74363;SDS011;62797;49.740;10.154;2024-03-06T01:08:14;33.00;;;16.17;;
74363;SDS011;62797;49.740;10.154;2024-03-06T01:10:50;32.53;;;16.65;;
74363;SDS011;62797;49.740;10.154;2024-03-06T01:13:23;31.85;;;16.80;;
74363;SDS011;62797;49.740;10.154;2024-03-06T01:15:56;33.25;;;16.27;;
74363;SDS011;62797;49.740;10.154;2024-03-06T01:18:28;33.50;;;18.25;;
74363;SDS011;62797;49.740;10.154;2024-03-06T01:21:00;25.50;;;14.32;;
74363;SDS011;62797;49.740;10.154;2024-03-06T01:23:32;32.42;;;15.57;;
74363;SDS011;62797;49.740;10.154;2024-03-06T01:26:04;29.98;;;13.73;;
74363;SDS011;62797;49.740;10.154;2024-03-06T01:28:36;27.90;;;13.93;;
74363;SDS011;62797;49.740;10.154;2024-03-06T01:31:12;27.23;;;15.20;;
74363;SDS011;62797;49.740;10.154;2024-03-06T01:33:45;28.38;;;14.63;;
74363;SDS011;62797;49.740;10.154;2024-03-06T01:36:17;33.80;;;16.60;;
74363;SDS011;62797;49.740;10.154;2024-03-06T01:38:51;32.92;;;17.33;;
74363;SDS011;62797;49.740;10.154;2024-03-06T01:41:23;30.67;;;16.88;;
74363;SDS011;62797;49.740;10.154;2024-03-06T01:43:55;28.33;;;14.57;;
74363;SDS011;62797;49.740;10.154;2024-03-06T01:46:31;27.58;;;15.13;;
74363;SDS011;62797;49.740;10.154;2024-03-06T01:49:03;27.35;;;14.65;;
74363;SDS011;62797;49.740;10.154;2024-03-06T01:51:36;31.45;;;15.73;;
74363;SDS011;62797;49.740;10.154;2024-03-06T01:54:08;29.20;;;14.35;;
74363;SDS011;62797;49.740;10.154;2024-03-06T01:56:43;31.08;;;15.23;;
74363;SDS011;62797;49.740;10.154;2024-03-06T01:59:17;35.47;;;16.85;;
74363;SDS011;62797;49.740;10.154;2024-03-06T02:01:53;32.22;;;17.38;;
74363;SDS011;62797;49.740;10.154;2024-03-06T02:04:26;36.05;;;18.27;;
74363;SDS011;62797;49.740;10.154;2024-03-06T02:07:00;26.02;;;14.68;;
74363;SDS011;62797;49.740;10.154;2024-03-06T02:09:34;25.25;;;14.50;;
74363;SDS011;62797;49.740;10.154;2024-03-06T02:12:06;33.08;;;16.23;;
74363;SDS011;62797;49.740;10.154;2024-03-06T02:14:42;27.35;;;13.38;;
74363;SDS011;62797;49.740;10.154;2024-03-06T02:17:15;29.02;;;16.50;;
74363;SDS011;62797;49.740;10.154;2024-03-06T02:19:47;31.85;;;15.18;;
74363;SDS011;62797;49.740;10.154;2024-03-06T02:22:19;36.40;;;17.33;;
74363;SDS011;62797;49.740;10.154;2024-03-06T02:27:46;33.45;;;17.58;;
74363;SDS011;62797;49.740;10.154;2024-03-06T02:30:20;31.77;;;16.15;;
74363;SDS011;62797;49.740;10.154;2024-03-06T02:36:22;34.92;;;16.63;;
74363;SDS011;62797;49.740;10.154;2024-03-06T02:38:54;34.70;;;15.38;;
74363;SDS011;62797;49.740;10.154;2024-03-06T02:41:28;33.78;;;16.20;;
74363;SDS011;62797;49.740;10.154;2024-03-06T02:44:02;32.63;;;16.52;;
74363;SDS011;62797;49.740;10.154;2024-03-06T02:46:35;41.83;;;20.83;;
74363;SDS011;62797;49.740;10.154;2024-03-06T02:49:07;34.97;;;16.80;;
74363;SDS011;62797;49.740;10.154;2024-03-06T02:51:39;46.17;;;19.40;;
74363;SDS011;62797;49.740;10.154;2024-03-06T02:54:11;33.40;;;16.02;;
74363;SDS011;62797;49.740;10.154;2024-03-06T02:56:43;46.58;;;21.05;;
74363;SDS011;62797;49.740;10.154;2024-03-06T02:59:15;45.10;;;19.70;;
74363;SDS011;62797;49.740;10.154;2024-03-06T03:01:47;42.63;;;18.90;;
74363;SDS011;62797;49.740;10.154;2024-03-06T03:04:20;40.08;;;18.95;;
74363;SDS011;62797;49.740;10.154;2024-03-06T03:06:52;47.47;;;20.92;;
74363;SDS011;62797;49.740;10.154;2024-03-06T03:09:24;38.72;;;18.40;;
74363;SDS011;62797;49.740;10.154;2024-03-06T03:11:56;41.38;;;20.17;;
74363;SDS011;62797;49.740;10.154;2024-03-06T03:14:29;45.00;;;20.55;;
74363;SDS011;62797;49.740;10.154;2024-03-06T03:17:02;38.55;;;18.88;;
74363;SDS011;62797;49.740;10.154;2024-03-06T03:19:34;51.53;;;21.73;;
74363;SDS011;62797;49.740;10.154;2024-03-06T03:22:07;47.03;;;19.95;;
74363;SDS011;62797;49.740;10.154;2024-03-06T03:24:41;51.92;;;20.83;;
74363;SDS011;62797;49.740;10.154;2024-03-06T03:27:16;46.13;;;21.08;;
74363;SDS011;62797;49.740;10.154;2024-03-06T03:29:48;40.20;;;20.40;;
74363;SDS011;62797;49.740;10.154;2024-03-06T03:32:20;46.25;;;20.58;;
74363;SDS011;62797;49.740;10.154;2024-03-06T03:34:52;45.45;;;20.10;;
74363;SDS011;62797;49.740;10.154;2024-03-06T03:37:25;36.45;;;18.30;;
74363;SDS011;62797;49.740;10.154;2024-03-06T03:39:57;36.08;;;17.08;;
74363;SDS011;62797;49.740;10.154;2024-03-06T03:42:29;35.13;;;18.10;;
74363;SDS011;62797;49.740;10.154;2024-03-06T03:45:01;40.83;;;19.80;;
74363;SDS011;62797;49.740;10.154;2024-03-06T03:47:35;40.38;;;19.75;;
74363;SDS011;62797;49.740;10.154;2024-03-06T03:50:07;43.00;;;22.17;;
74363;SDS011;62797;49.740;10.154;2024-03-06T03:52:40;31.40;;;15.65;;
74363;SDS011;62797;49.740;10.154;2024-03-06T03:55:14;42.17;;;20.13;;
74363;SDS011;62797;49.740;10.154;2024-03-06T03:57:46;46.95;;;20.65;;
74363;SDS011;62797;49.740;10.154;2024-03-06T04:00:18;40.70;;;20.63;;
74363;SDS011;62797;49.740;10.154;2024-03-06T04:02:51;38.60;;;19.88;;
74363;SDS011;62797;49.740;10.154;2024-03-06T04:05:30;44.30;;;21.52;;
74363;SDS011;62797;49.740;10.154;2024-03-06T04:08:06;43.58;;;20.10;;
74363;SDS011;62797;49.740;10.154;2024-03-06T04:10:38;35.08;;;17.67;;
74363;SDS011;62797;49.740;10.154;2024-03-06T04:13:11;33.08;;;17.13;;
74363;SDS011;62797;49.740;10.154;2024-03-06T04:15:44;33.30;;;16.40;;
74363;SDS011;62797;49.740;10.154;2024-03-06T04:18:16;37.28;;;16.98;;
74363;SDS011;62797;49.740;10.154;2024-03-06T04:20:49;40.42;;;19.38;;
74363;SDS011;62797;49.740;10.154;2024-03-06T04:23:21;39.60;;;19.40;;
74363;SDS011;62797;49.740;10.154;2024-03-06T04:25:54;41.15;;;19.27;;
74363;SDS011;62797;49.740;10.154;2024-03-06T04:28:26;40.05;;;21.13;;
74363;SDS011;62797;49.740;10.154;2024-03-06T04:30:58;50.03;;;22.13;;
74363;SDS011;62797;49.740;10.154;2024-03-06T04:36:21;45.42;;;19.42;;
74363;SDS011;62797;49.740;10.154;2024-03-06T04:38:53;51.20;;;26.33;;
74363;SDS011;62797;49.740;10.154;2024-03-06T04:41:25;45.50;;;22.58;;
74363;SDS011;62797;49.740;10.154;2024-03-06T04:43:57;46.53;;;21.40;;
74363;SDS011;62797;49.740;10.154;2024-03-06T04:46:31;51.20;;;22.70;;
74363;SDS011;62797;49.740;10.154;2024-03-06T04:49:03;50.55;;;23.23;;
74363;SDS011;62797;49.740;10.154;2024-03-06T04:51:35;41.75;;;20.90;;
74363;SDS011;62797;49.740;10.154;2024-03-06T04:54:07;38.78;;;19.38;;
74363;SDS011;62797;49.740;10.154;2024-03-06T04:56:40;51.90;;;23.15;;
74363;SDS011;62797;49.740;10.154;2024-03-06T04:59:12;38.78;;;18.88;;
74363;SDS011;62797;49.740;10.154;2024-03-06T05:01:45;38.50;;;19.70;;
74363;SDS011;62797;49.740;10.154;2024-03-06T05:04:17;47.60;;;22.38;;
74363;SDS011;62797;49.740;10.154;2024-03-06T05:06:49;41.45;;;22.55;;
74363;SDS011;62797;49.740;10.154;2024-03-06T05:09:21;48.92;;;21.80;;
74363;SDS011;62797;49.740;10.154;2024-03-06T05:11:53;46.08;;;21.60;;
74363;SDS011;62797;49.740;10.154;2024-03-06T05:14:28;46.35;;;20.58;;
74363;SDS011;62797;49.740;10.154;2024-03-06T05:17:00;38.45;;;19.88;;
74363;SDS011;62797;49.740;10.154;2024-03-06T05:19:32;39.42;;;20.27;;
74363;SDS011;62797;49.740;10.154;2024-03-06T05:22:04;40.05;;;18.70;;
74363;SDS011;62797;49.740;10.154;2024-03-06T05:24:37;32.90;;;16.42;;
74363;SDS011;62797;49.740;10.154;2024-03-06T05:27:09;50.63;;;21.17;;
74363;SDS011;62797;49.740;10.154;2024-03-06T05:29:46;44.58;;;20.95;;
74363;SDS011;62797;49.740;10.154;2024-03-06T05:32:18;44.53;;;19.85;;
74363;SDS011;62797;49.740;10.154;2024-03-06T05:34:51;36.72;;;18.50;;
74363;SDS011;62797;49.740;10.154;2024-03-06T05:37:23;38.15;;;18.80;;
74363;SDS011;62797;49.740;10.154;2024-03-06T05:39:55;41.92;;;19.83;;
74363;SDS011;62797;49.740;10.154;2024-03-06T05:42:27;33.80;;;17.42;;
74363;SDS011;62797;49.740;10.154;2024-03-06T05:44:59;49.85;;;22.80;;
74363;SDS011;62797;49.740;10.154;2024-03-06T05:47:37;39.95;;;18.83;;
74363;SDS011;62797;49.740;10.154;2024-03-06T05:50:10;47.08;;;22.33;;
74363;SDS011;62797;49.740;10.154;2024-03-06T05:52:42;48.90;;;24.08;;
74363;SDS011;62797;49.740;10.154;2024-03-06T05:55:18;48.95;;;23.08;;
74363;SDS011;62797;49.740;10.154;2024-03-06T05:57:51;42.53;;;19.98;;
74363;SDS011;62797;49.740;10.154;2024-03-06T06:00:25;52.33;;;22.90;;
74363;SDS011;62797;49.740;10.154;2024-03-06T06:02:57;52.63;;;24.08;;
74363;SDS011;62797;49.740;10.154;2024-03-06T06:05:29;55.42;;;23.52;;
74363;SDS011;62797;49.740;10.154;2024-03-06T06:08:09;48.22;;;23.83;;
74363;SDS011;62797;49.740;10.154;2024-03-06T06:10:42;51.97;;;20.80;;
74363;SDS011;62797;49.740;10.154;2024-03-06T06:13:14;46.03;;;20.80;;
74363;SDS011;62797;49.740;10.154;2024-03-06T06:15:46;47.05;;;22.23;;
74363;SDS011;62797;49.740;10.154;2024-03-06T06:18:18;45.80;;;20.20;;
74363;SDS011;62797;49.740;10.154;2024-03-06T06:20:50;48.03;;;21.60;;
74363;SDS011;62797;49.740;10.154;2024-03-06T06:23:23;49.65;;;22.70;;
74363;SDS011;62797;49.740;10.154;2024-03-06T06:25:56;55.25;;;25.35;;
74363;SDS011;62797;49.740;10.154;2024-03-06T06:28:28;55.05;;;23.30;;
74363;SDS011;62797;49.740;10.154;2024-03-06T06:31:01;49.38;;;22.60;;
74363;SDS011;62797;49.740;10.154;2024-03-06T06:33:34;58.45;;;27.05;;
74363;SDS011;62797;49.740;10.154;2024-03-06T06:36:06;57.58;;;24.42;;
74363;SDS011;62797;49.740;10.154;2024-03-06T06:38:39;52.50;;;21.55;;
74363;SDS011;62797;49.740;10.154;2024-03-06T06:41:18;51.83;;;21.80;;
74363;SDS011;62797;49.740;10.154;2024-03-06T06:43:51;48.03;;;20.88;;
74363;SDS011;62797;49.740;10.154;2024-03-06T06:46:24;52.45;;;23.60;;
74363;SDS011;62797;49.740;10.154;2024-03-06T06:48:59;54.42;;;23.00;;
74363;SDS011;62797;49.740;10.154;2024-03-06T06:51:32;59.20;;;25.55;;
74363;SDS011;62797;49.740;10.154;2024-03-06T06:54:04;63.63;;;20.35;;
74363;SDS011;62797;49.740;10.154;2024-03-06T06:56:36;59.80;;;20.95;;
74363;SDS011;62797;49.740;10.154;2024-03-06T06:59:08;54.20;;;21.52;;
74363;SDS011;62797;49.740;10.154;2024-03-06T07:01:40;46.53;;;20.23;;
74363;SDS011;62797;49.740;10.154;2024-03-06T07:04:16;47.67;;;21.88;;
74363;SDS011;62797;49.740;10.154;2024-03-06T07:06:51;53.40;;;21.88;;
74363;SDS011;62797;49.740;10.154;2024-03-06T07:09:30;53.20;;;21.60;;
74363;SDS011;62797;49.740;10.154;2024-03-06T07:12:02;50.72;;;19.55;;
74363;SDS011;62797;49.740;10.154;2024-03-06T07:14:37;51.38;;;21.30;;
74363;SDS011;62797;49.740;10.154;2024-03-06T07:17:10;42.90;;;19.08;;
74363;SDS011;62797;49.740;10.154;2024-03-06T07:19:42;52.63;;;21.45;;
74363;SDS011;62797;49.740;10.154;2024-03-06T07:22:14;50.47;;;21.67;;
74363;SDS011;62797;49.740;10.154;2024-03-06T07:24:46;60.47;;;22.30;;
74363;SDS011;62797;49.740;10.154;2024-03-06T07:27:18;47.72;;;20.75;;
74363;SDS011;62797;49.740;10.154;2024-03-06T07:29:58;65.32;;;23.48;;
74363;SDS011;62797;49.740;10.154;2024-03-06T07:32:37;50.65;;;22.02;;
74363;SDS011;62797;49.740;10.154;2024-03-06T07:35:09;46.13;;;20.63;;
74363;SDS011;62797;49.740;10.154;2024-03-06T07:37:42;49.90;;;20.92;;
74363;SDS011;62797;49.740;10.154;2024-03-06T07:40:16;55.17;;;21.80;;
74363;SDS011;62797;49.740;10.154;2024-03-06T07:42:49;50.97;;;18.75;;
74363;SDS011;62797;49.740;10.154;2024-03-06T07:45:21;59.15;;;21.67;;
74363;SDS011;62797;49.740;10.154;2024-03-06T07:47:53;58.83;;;22.13;;
74363;SDS011;62797;49.740;10.154;2024-03-06T07:50:26;51.67;;;20.23;;
74363;SDS011;62797;49.740;10.154;2024-03-06T07:52:59;48.20;;;19.17;;
74363;SDS011;62797;49.740;10.154;2024-03-06T07:55:32;51.35;;;20.73;;
74363;SDS011;62797;49.740;10.154;2024-03-06T07:58:12;42.65;;;17.15;;
74363;SDS011;62797;49.740;10.154;2024-03-06T08:00:53;55.28;;;20.00;;
74363;SDS011;62797;49.740;10.154;2024-03-06T08:03:27;45.80;;;19.77;;
74363;SDS011;62797;49.740;10.154;2024-03-06T08:06:06;47.97;;;17.65;;
74363;SDS011;62797;49.740;10.154;2024-03-06T08:08:39;45.05;;;19.42;;
74363;SDS011;62797;49.740;10.154;2024-03-06T08:11:13;41.38;;;17.70;;
74363;SDS011;62797;49.740;10.154;2024-03-06T08:13:48;43.22;;;18.33;;
74363;SDS011;62797;49.740;10.154;2024-03-06T08:16:21;42.28;;;16.13;;
74363;SDS011;62797;49.740;10.154;2024-03-06T08:18:55;39.28;;;17.90;;
74363;SDS011;62797;49.740;10.154;2024-03-06T08:21:29;40.30;;;17.38;;
74363;SDS011;62797;49.740;10.154;2024-03-06T08:24:14;37.50;;;16.60;;
74363;SDS011;62797;49.740;10.154;2024-03-06T08:27:01;39.30;;;17.95;;
74363;SDS011;62797;49.740;10.154;2024-03-06T08:29:37;45.45;;;17.58;;
74363;SDS011;62797;49.740;10.154;2024-03-06T08:32:11;35.00;;;14.15;;
74363;SDS011;62797;49.740;10.154;2024-03-06T08:34:43;45.97;;;17.40;;
74363;SDS011;62797;49.740;10.154;2024-03-06T08:37:15;38.05;;;17.05;;
74363;SDS011;62797;49.740;10.154;2024-03-06T08:39:51;44.78;;;19.58;;
74363;SDS011;62797;49.740;10.154;2024-03-06T08:42:25;45.40;;;19.05;;
74363;SDS011;62797;49.740;10.154;2024-03-06T08:44:58;38.22;;;17.73;;
74363;SDS011;62797;49.740;10.154;2024-03-06T08:47:30;43.45;;;17.02;;
74363;SDS011;62797;49.740;10.154;2024-03-06T08:50:06;43.90;;;18.98;;
74363;SDS011;62797;49.740;10.154;2024-03-06T08:52:39;42.35;;;18.65;;
74363;SDS011;62797;49.740;10.154;2024-03-06T08:55:15;41.95;;;20.30;;
74363;SDS011;62797;49.740;10.154;2024-03-06T08:57:48;41.53;;;18.35;;
74363;SDS011;62797;49.740;10.154;2024-03-06T09:00:22;42.40;;;18.63;;
74363;SDS011;62797;49.740;10.154;2024-03-06T09:02:54;46.95;;;18.15;;
74363;SDS011;62797;49.740;10.154;2024-03-06T09:05:26;46.10;;;20.17;;
74363;SDS011;62797;49.740;10.154;2024-03-06T09:08:06;39.28;;;17.55;;
74363;SDS011;62797;49.740;10.154;2024-03-06T09:10:38;41.42;;;17.42;;
74363;SDS011;62797;49.740;10.154;2024-03-06T09:13:10;51.55;;;21.40;;
74363;SDS011;62797;49.740;10.154;2024-03-06T09:15:42;44.08;;;20.02;;
74363;SDS011;62797;49.740;10.154;2024-03-06T09:18:15;42.15;;;18.65;;
74363;SDS011;62797;49.740;10.154;2024-03-06T09:20:48;47.75;;;20.13;;
74363;SDS011;62797;49.740;10.154;2024-03-06T09:23:20;46.17;;;18.75;;
74363;SDS011;62797;49.740;10.154;2024-03-06T09:25:53;45.40;;;21.95;;
74363;SDS011;62797;49.740;10.154;2024-03-06T09:28:28;54.97;;;24.15;;
74363;SDS011;62797;49.740;10.154;2024-03-06T09:31:05;40.10;;;18.90;;
74363;SDS011;62797;49.740;10.154;2024-03-06T09:33:38;46.70;;;20.70;;
74363;SDS011;62797;49.740;10.154;2024-03-06T09:36:11;46.05;;;20.27;;
74363;SDS011;62797;49.740;10.154;2024-03-06T09:38:46;51.30;;;23.45;;
74363;SDS011;62797;49.740;10.154;2024-03-06T09:41:18;50.22;;;20.65;;
74363;SDS011;62797;49.740;10.154;2024-03-06T09:43:53;47.47;;;21.10;;
74363;SDS011;62797;49.740;10.154;2024-03-06T09:46:25;51.53;;;19.45;;
74363;SDS011;62797;49.740;10.154;2024-03-06T09:48:58;52.60;;;22.50;;
74363;SDS011;62797;49.740;10.154;2024-03-06T09:51:31;44.28;;;19.80;;
74363;SDS011;62797;49.740;10.154;2024-03-06T09:54:05;43.00;;;19.23;;
74363;SDS011;62797;49.740;10.154;2024-03-06T09:56:39;51.30;;;19.40;;
74363;SDS011;62797;49.740;10.154;2024-03-06T09:59:16;50.30;;;19.92;;
74363;SDS011;62797;49.740;10.154;2024-03-06T10:01:55;43.70;;;20.70;;
74363;SDS011;62797;49.740;10.154;2024-03-06T10:04:29;50.17;;;21.95;;
74363;SDS011;62797;49.740;10.154;2024-03-06T10:07:13;45.92;;;20.40;;
74363;SDS011;62797;49.740;10.154;2024-03-06T10:09:47;44.10;;;19.98;;
74363;SDS011;62797;49.740;10.154;2024-03-06T10:12:19;42.78;;;19.70;;
74363;SDS011;62797;49.740;10.154;2024-03-06T10:14:53;45.95;;;20.75;;
74363;SDS011;62797;49.740;10.154;2024-03-06T10:17:26;43.47;;;17.70;;
74363;SDS011;62797;49.740;10.154;2024-03-06T10:20:20;40.65;;;17.88;;
74363;SDS011;62797;49.740;10.154;2024-03-06T10:22:57;41.15;;;18.80;;
74363;SDS011;62797;49.740;10.154;2024-03-06T10:25:30;39.88;;;17.60;;
74363;SDS011;62797;49.740;10.154;2024-03-06T10:28:08;44.78;;;19.55;;
74363;SDS011;62797;49.740;10.154;2024-03-06T10:30:46;37.10;;;17.92;;
74363;SDS011;62797;49.740;10.154;2024-03-06T10:36:31;40.45;;;18.58;;
74363;SDS011;62797;49.740;10.154;2024-03-06T10:39:04;48.83;;;19.38;;
74363;SDS011;62797;49.740;10.154;2024-03-06T10:41:39;45.22;;;18.95;;
74363;SDS011;62797;49.740;10.154;2024-03-06T10:44:13;41.13;;;17.60;;
74363;SDS011;62797;49.740;10.154;2024-03-06T10:46:47;42.50;;;18.02;;
74363;SDS011;62797;49.740;10.154;2024-03-06T10:49:33;42.72;;;18.77;;
74363;SDS011;62797;49.740;10.154;2024-03-06T10:52:06;45.53;;;19.63;;
74363;SDS011;62797;49.740;10.154;2024-03-06T10:54:38;42.38;;;20.08;;
74363;SDS011;62797;49.740;10.154;2024-03-06T10:57:13;41.08;;;20.42;;
74363;SDS011;62797;49.740;10.154;2024-03-06T10:59:46;43.20;;;19.42;;
74363;SDS011;62797;49.740;10.154;2024-03-06T11:02:19;42.88;;;18.60;;
74363;SDS011;62797;49.740;10.154;2024-03-06T11:04:54;46.63;;;18.80;;
74363;SDS011;62797;49.740;10.154;2024-03-06T11:07:26;40.42;;;19.02;;
74363;SDS011;62797;49.740;10.154;2024-03-06T11:09:59;45.38;;;20.95;;
74363;SDS011;62797;49.740;10.154;2024-03-06T11:12:35;41.95;;;18.05;;
74363;SDS011;62797;49.740;10.154;2024-03-06T11:15:13;42.30;;;19.85;;
74363;SDS011;62797;49.740;10.154;2024-03-06T11:17:47;45.78;;;20.42;;
74363;SDS011;62797;49.740;10.154;2024-03-06T11:20:20;40.92;;;18.67;;
74363;SDS011;62797;49.740;10.154;2024-03-06T11:28:22;40.25;;;19.20;;
74363;SDS011;62797;49.740;10.154;2024-03-06T11:31:09;41.28;;;19.17;;
74363;SDS011;62797;49.740;10.154;2024-03-06T11:33:52;39.45;;;18.92;;
74363;SDS011;62797;49.740;10.154;2024-03-06T11:36:27;45.63;;;20.05;;
74363;SDS011;62797;49.740;10.154;2024-03-06T11:46:08;60.10;;;22.52;;
74363;SDS011;62797;49.740;10.154;2024-03-06T11:48:52;47.97;;;24.00;;
74363;SDS011;62797;49.740;10.154;2024-03-06T11:51:26;55.92;;;24.30;;
74363;SDS011;62797;49.740;10.154;2024-03-06T11:53:58;52.42;;;21.67;;
74363;SDS011;62797;49.740;10.154;2024-03-06T11:56:31;44.13;;;19.63;;
74363;SDS011;62797;49.740;10.154;2024-03-06T11:59:03;40.83;;;18.45;;
74363;SDS011;62797;49.740;10.154;2024-03-06T12:01:41;44.75;;;21.63;;
74363;SDS011;62797;49.740;10.154;2024-03-06T12:04:14;48.17;;;19.90;;
74363;SDS011;62797;49.740;10.154;2024-03-06T12:06:46;47.20;;;22.63;;
74363;SDS011;62797;49.740;10.154;2024-03-06T12:09:18;40.17;;;19.60;;
74363;SDS011;62797;49.740;10.154;2024-03-06T12:11:50;45.25;;;19.92;;
74363;SDS011;62797;49.740;10.154;2024-03-06T12:14:22;39.58;;;19.90;;
74363;SDS011;62797;49.740;10.154;2024-03-06T12:16:58;46.10;;;19.52;;
74363;SDS011;62797;49.740;10.154;2024-03-06T12:19:34;37.78;;;17.80;;
74363;SDS011;62797;49.740;10.154;2024-03-06T12:25:37;45.83;;;19.77;;
74363;SDS011;62797;49.740;10.154;2024-03-06T12:28:12;38.35;;;16.27;;
74363;SDS011;62797;49.740;10.154;2024-03-06T12:30:48;36.60;;;17.15;;
74363;SDS011;62797;49.740;10.154;2024-03-06T12:36:31;35.90;;;16.55;;
74363;SDS011;62797;49.740;10.154;2024-03-06T12:39:04;40.22;;;17.60;;
74363;SDS011;62797;49.740;10.154;2024-03-06T12:41:44;33.75;;;16.35;;
74363;SDS011;62797;49.740;10.154;2024-03-06T12:44:17;39.05;;;17.02;;
74363;SDS011;62797;49.740;10.154;2024-03-06T12:46:58;48.05;;;19.33;;
74363;SDS011;62797;49.740;10.154;2024-03-06T12:49:30;45.28;;;18.55;;
74363;SDS011;62797;49.740;10.154;2024-03-06T12:52:02;42.35;;;17.63;;
74363;SDS011;62797;49.740;10.154;2024-03-06T12:54:36;39.20;;;17.67;;
74363;SDS011;62797;49.740;10.154;2024-03-06T12:57:08;38.92;;;19.42;;
74363;SDS011;62797;49.740;10.154;2024-03-06T12:59:40;41.35;;;18.80;;
74363;SDS011;62797;49.740;10.154;2024-03-06T13:02:13;38.30;;;17.70;;
74363;SDS011;62797;49.740;10.154;2024-03-06T13:04:48;38.97;;;19.58;;
74363;SDS011;62797;49.740;10.154;2024-03-06T13:07:20;40.92;;;19.00;;
74363;SDS011;62797;49.740;10.154;2024-03-06T13:09:52;41.10;;;19.27;;
74363;SDS011;62797;49.740;10.154;2024-03-06T13:12:24;41.40;;;18.05;;
74363;SDS011;62797;49.740;10.154;2024-03-06T13:14:56;44.80;;;19.13;;
74363;SDS011;62797;49.740;10.154;2024-03-06T13:17:28;40.70;;;20.00;;
74363;SDS011;62797;49.740;10.154;2024-03-06T13:20:01;42.97;;;18.05;;
74363;SDS011;62797;49.740;10.154;2024-03-06T13:22:34;37.17;;;16.30;;
74363;SDS011;62797;49.740;10.154;2024-03-06T13:25:06;39.78;;;20.58;;
74363;SDS011;62797;49.740;10.154;2024-03-06T13:27:39;37.67;;;18.25;;
74363;SDS011;62797;49.740;10.154;2024-03-06T13:30:14;39.25;;;18.27;;
74363;SDS011;62797;49.740;10.154;2024-03-06T13:32:47;47.08;;;23.02;;
74363;SDS011;62797;49.740;10.154;2024-03-06T13:35:20;45.22;;;19.58;;
74363;SDS011;62797;49.740;10.154;2024-03-06T13:37:52;37.95;;;18.80;;
74363;SDS011;62797;49.740;10.154;2024-03-06T13:40:25;37.83;;;19.20;;
74363;SDS011;62797;49.740;10.154;2024-03-06T13:42:58;40.50;;;18.63;;
74363;SDS011;62797;49.740;10.154;2024-03-06T13:45:31;35.92;;;16.65;;
74363;SDS011;62797;49.740;10.154;2024-03-06T13:48:13;31.75;;;14.77;;
74363;SDS011;62797;49.740;10.154;2024-03-06T13:50:49;35.28;;;16.20;;
74363;SDS011;62797;49.740;10.154;2024-03-06T13:53:22;34.80;;;16.38;;
74363;SDS011;62797;49.740;10.154;2024-03-06T13:55:54;32.08;;;16.40;;
74363;SDS011;62797;49.740;10.154;2024-03-06T13:58:27;33.20;;;15.93;;
74363;SDS011;62797;49.740;10.154;2024-03-06T14:00:59;31.73;;;16.02;;
74363;SDS011;62797;49.740;10.154;2024-03-06T14:03:31;34.33;;;16.88;;
74363;SDS011;62797;49.740;10.154;2024-03-06T14:06:05;36.55;;;16.25;;
74363;SDS011;62797;49.740;10.154;2024-03-06T14:08:40;33.40;;;16.23;;
74363;SDS011;62797;49.740;10.154;2024-03-06T14:11:13;37.22;;;16.60;;
74363;SDS011;62797;49.740;10.154;2024-03-06T14:13:46;29.02;;;14.35;;
74363;SDS011;62797;49.740;10.154;2024-03-06T14:16:18;35.38;;;16.08;;
74363;SDS011;62797;49.740;10.154;2024-03-06T14:18:50;36.10;;;16.45;;
74363;SDS011;62797;49.740;10.154;2024-03-06T14:21:22;33.67;;;15.82;;
74363;SDS011;62797;49.740;10.154;2024-03-06T14:23:54;35.45;;;17.67;;
74363;SDS011;62797;49.740;10.154;2024-03-06T14:26:30;34.38;;;16.50;;
74363;SDS011;62797;49.740;10.154;2024-03-06T14:29:03;32.95;;;15.43;;
74363;SDS011;62797;49.740;10.154;2024-03-06T14:31:39;35.08;;;16.83;;
74363;SDS011;62797;49.740;10.154;2024-03-06T14:34:11;37.20;;;18.75;;
74363;SDS011;62797;49.740;10.154;2024-03-06T14:36:43;40.28;;;18.90;;
74363;SDS011;62797;49.740;10.154;2024-03-06T14:39:15;37.75;;;17.02;;
74363;SDS011;62797;49.740;10.154;2024-03-06T14:41:47;48.97;;;18.40;;
74363;SDS011;62797;49.740;10.154;2024-03-06T14:44:20;32.47;;;15.35;;
74363;SDS011;62797;49.740;10.154;2024-03-06T14:46:52;34.13;;;15.98;;
74363;SDS011;62797;49.740;10.154;2024-03-06T14:49:27;30.02;;;16.52;;
74363;SDS011;62797;49.740;10.154;2024-03-06T14:51:59;33.70;;;15.30;;
74363;SDS011;62797;49.740;10.154;2024-03-06T14:54:31;30.35;;;15.57;;
74363;SDS011;62797;49.740;10.154;2024-03-06T14:57:03;30.05;;;14.85;;
74363;SDS011;62797;49.740;10.154;2024-03-06T14:59:37;29.90;;;12.90;;
74363;SDS011;62797;49.740;10.154;2024-03-06T15:02:09;31.92;;;15.25;;
74363;SDS011;62797;49.740;10.154;2024-03-06T15:04:41;29.45;;;14.02;;
74363;SDS011;62797;49.740;10.154;2024-03-06T15:07:13;28.33;;;15.05;;
74363;SDS011;62797;49.740;10.154;2024-03-06T15:09:45;31.95;;;13.48;;
74363;SDS011;62797;49.740;10.154;2024-03-06T15:12:17;29.10;;;14.98;;
74363;SDS011;62797;49.740;10.154;2024-03-06T15:14:53;28.42;;;14.32;;
74363;SDS011;62797;49.740;10.154;2024-03-06T15:17:28;30.17;;;14.05;;
74363;SDS011;62797;49.740;10.154;2024-03-06T15:20:00;28.63;;;14.65;;